Time;durP1;ratioP1;P1;durP2;ratioP2;P2;SDS_P1;SDS_P2;PMS_P1;PMS_P2;Temp;Humidity;BMP_temperature;BMP_pressure;BME280_temperature;BME280_humidity;BME280_pressure;Samples;Min_cycle;Max_cycle;Signal;HPM_P1;HPM_P2
2022/12/11 00:00:40;;;;;;;602.35;137.48;;;;;;;-1.26;100.00;101075.53;5055110;28;20049;-48
2022/12/11 00:03:06;;;;;;;602.58;137.80;;;;;;;-1.27;100.00;101068.72;5055045;28;20059;-48
2022/12/11 00:05:31;;;;;;;654.60;160.73;;;;;;;-1.27;100.00;101067.84;5055016;28;20099;-43
2022/12/11 00:07:57;;;;;;;598.72;133.90;;;;;;;-1.27;100.00;101072.91;5054995;28;20021;-43
2022/12/11 00:10:23;;;;;;;632.22;150.77;;;;;;;-1.27;100.00;101072.91;5055085;28;20551;-49
2022/12/11 00:12:48;;;;;;;604.92;133.57;;;;;;;-1.26;100.00;101064.56;5055103;28;20092;-47
2022/12/11 00:15:13;;;;;;;600.60;141.57;;;;;;;-1.24;100.00;101068.97;5054661;28;20476;-49
2022/12/11 00:17:39;;;;;;;619.85;143.07;;;;;;;-1.25;100.00;101067.19;5054792;28;20017;-46
2022/12/11 00:20:04;;;;;;;625.03;151.02;;;;;;;-1.24;100.00;101058.88;5055086;28;20111;-48
2022/12/11 00:22:30;;;;;;;588.65;131.75;;;;;;;-1.21;100.00;101065.81;5054281;28;20029;-47
2022/12/11 00:24:55;;;;;;;610.22;153.15;;;;;;;-1.22;100.00;101062.38;5054673;28;20037;-48
2022/12/11 00:27:20;;;;;;;590.00;127.13;;;;;;;-1.19;100.00;101061.75;5055171;28;20520;-47
2022/12/11 00:29:46;;;;;;;583.20;129.90;;;;;;;-1.18;100.00;101063.53;5054056;28;20116;-47
2022/12/11 00:32:11;;;;;;;586.67;129.60;;;;;;;-1.19;100.00;101065.19;5055101;28;20392;-47
2022/12/11 00:34:37;;;;;;;567.38;131.85;;;;;;;-1.18;100.00;101063.53;5054605;28;20096;-48
2022/12/11 00:37:02;;;;;;;574.92;129.52;;;;;;;-1.17;100.00;101066.16;5054185;28;20472;-48
2022/12/11 00:39:27;;;;;;;556.17;125.88;;;;;;;-1.17;100.00;101066.16;5054413;28;20032;-47
2022/12/11 00:41:52;;;;;;;535.50;121.75;;;;;;;-1.16;100.00;101067.06;5053558;28;20063;-46
2022/12/11 00:44:18;;;;;;;543.58;128.75;;;;;;;-1.17;100.00;101062.75;5054030;28;20061;-47
2022/12/11 00:46:43;;;;;;;525.30;122.18;;;;;;;-1.15;100.00;101063.75;5054302;28;20435;-47
2022/12/11 00:49:08;;;;;;;539.78;122.10;;;;;;;-1.16;100.00;101060.34;5054604;28;20036;-47
2022/12/11 00:51:34;;;;;;;558.50;147.77;;;;;;;-1.16;100.00;101062.00;5053713;28;20052;-44
2022/12/11 00:53:59;;;;;;;527.42;122.70;;;;;;;-1.15;100.00;101063.75;5054502;28;20025;-46
2022/12/11 00:56:24;;;;;;;530.38;124.95;;;;;;;-1.13;100.00;101063.91;5054416;28;20354;-49
2022/12/11 00:58:50;;;;;;;524.92;121.15;;;;;;;-1.12;100.00;101058.06;5053785;28;20028;-47
2022/12/11 01:01:19;;;;;;;537.30;123.45;;;;;;;-1.14;100.00;101060.47;5054439;28;20032;-48
2022/12/11 01:03:45;;;;;;;520.42;123.60;;;;;;;-1.12;100.00;101053.91;5053473;28;20036;-48
2022/12/11 01:06:15;;;;;;;521.95;128.13;;;;;;;-1.09;100.00;101053.25;5053834;28;20039;-44
2022/12/11 01:08:41;;;;;;;507.85;120.35;;;;;;;-1.08;100.00;101053.38;5053814;28;20029;-48
2022/12/11 01:11:09;;;;;;;518.38;122.63;;;;;;;-1.08;100.00;101060.09;5054155;28;20112;-45
2022/12/11 01:13:35;;;;;;;510.00;127.60;;;;;;;-1.04;100.00;101062.09;5053432;28;20029;-47
2022/12/11 01:16:05;;;;;;;514.20;121.70;;;;;;;-1.08;100.00;101053.38;5054555;28;20025;-46
2022/12/11 01:18:31;;;;;;;495.77;121.15;;;;;;;-1.04;100.00;101055.38;5053262;28;20021;-46
2022/12/11 01:20:56;;;;;;;504.83;125.47;;;;;;;-1.04;100.00;101057.03;5053918;28;20507;-47
2022/12/11 01:23:21;;;;;;;472.92;122.07;;;;;;;-1.04;100.00;101059.56;5053808;28;20400;-48
2022/12/11 01:25:46;;;;;;;484.35;119.18;;;;;;;-1.02;100.00;101056.41;5052983;28;20075;-47
2022/12/11 01:28:12;;;;;;;480.08;121.63;;;;;;;-1.02;100.00;101061.47;5054306;28;20017;-47
2022/12/11 01:30:41;;;;;;;485.52;121.03;;;;;;;-1.02;100.00;101064.00;5053518;28;20032;-45
2022/12/11 01:33:07;;;;;;;474.08;117.60;;;;;;;-1.03;100.00;101067.28;5052981;28;20025;-48
2022/12/11 01:35:32;;;;;;;452.13;115.15;;;;;;;-1.00;100.00;101067.50;5053514;28;20025;-48
2022/12/11 01:37:58;;;;;;;479.00;119.07;;;;;;;-1.00;100.00;101062.44;5053528;28;20047;-46
2022/12/11 01:40:23;;;;;;;453.75;119.82;;;;;;;-1.00;100.00;101064.97;5053059;28;20511;-48
2022/12/11 01:42:49;;;;;;;451.13;115.95;;;;;;;-0.97;100.00;101060.94;5053390;28;20045;-47
2022/12/11 01:45:20;;;;;;;438.05;115.90;;;;;;;-0.94;100.00;101053.56;5053545;28;20021;-48
2022/12/11 01:47:46;;;;;;;452.38;116.70;;;;;;;-0.94;100.00;101058.63;5052759;28;20121;-48
2022/12/11 01:50:12;;;;;;;409.55;113.97;;;;;;;-0.94;100.00;101054.47;5053340;28;20495;-45
2022/12/11 01:52:38;;;;;;;375.08;106.85;;;;;;;-0.92;100.00;101054.59;5052426;28;20610;-47
2022/12/11 01:55:04;;;;;;;411.30;111.90;;;;;;;-0.91;100.00;101053.84;5053089;28;20119;-47
2022/12/11 01:57:30;;;;;;;385.98;107.75;;;;;;;-0.91;100.00;101048.78;5053360;28;20133;-46
2022/12/11 01:59:55;;;;;;;382.40;108.07;;;;;;;-0.91;100.00;101054.69;5052908;28;20071;-47
2022/12/11 02:02:26;;;;;;;390.27;105.45;;;;;;;-0.91;100.00;101048.78;5052831;28;20033;-47
2022/12/11 02:04:51;;;;;;;357.05;104.25;;;;;;;-0.89;100.00;101048.13;5052673;28;20077;-47
2022/12/11 02:07:17;;;;;;;358.17;106.72;;;;;;;-0.89;100.00;101045.59;5053103;28;20091;-48
2022/12/11 02:09:45;;;;;;;373.63;105.28;;;;;;;-0.90;100.00;101048.88;5052328;28;20476;-48
2022/12/11 02:12:45;;;;;;;357.40;104.32;;;;;;;-0.86;100.00;101042.44;5053212;28;20033;-44
2022/12/11 02:15:15;;;;;;;345.75;101.13;;;;;;;-0.86;100.00;101048.34;5030133;28;20456;-48
2022/12/11 02:17:48;;;;;;;350.70;101.78;;;;;;;-0.87;100.00;101040.66;5048742;28;20044;-46
2022/12/11 02:20:52;;;;;;;346.15;101.45;;;;;;;-0.84;100.00;101045.94;5053183;28;20189;-46
2022/12/11 02:23:41;;;;;;;342.30;103.20;;;;;;;-0.84;100.00;101056.06;5052280;28;20036;-47
2022/12/11 02:26:35;;;;;;;346.90;102.85;;;;;;;-0.85;100.00;101046.72;5053088;28;20026;-47
2022/12/11 02:29:07;;;;;;;344.13;101.80;;;;;;;-0.86;100.00;101042.44;5052268;28;20025;-46
2022/12/11 02:31:45;;;;;;;330.15;98.53;;;;;;;-0.84;100.00;101048.47;5052562;28;20357;-49
2022/12/11 02:34:23;;;;;;;344.23;99.63;;;;;;;-0.85;100.00;101044.19;5052795;28;20465;-48
2022/12/11 02:36:56;;;;;;;337.98;101.13;;;;;;;-0.84;100.00;101045.94;5052072;28;20075;-47
2022/12/11 02:39:25;;;;;;;339.30;101.15;;;;;;;-0.84;100.00;101046.84;5052658;28;20453;-47
2022/12/11 02:41:51;;;;;;;343.70;100.38;;;;;;;-0.82;100.00;101039.38;5052165;28;20738;-47
2022/12/11 02:44:29;;;;;;;338.45;99.90;;;;;;;-0.81;100.00;101048.72;5052084;28;20037;-46
2022/12/11 02:46:55;;;;;;;316.05;98.60;;;;;;;-0.83;100.00;101040.13;5052541;28;20086;-47
2022/12/11 02:49:23;;;;;;;318.10;96.65;;;;;;;-0.82;100.00;101044.44;5052783;28;20036;-47
2022/12/11 02:51:51;;;;;;;319.45;98.93;;;;;;;-0.82;100.00;101039.38;5051809;28;20523;-47
2022/12/11 02:54:26;;;;;;;311.27;93.00;;;;;;;-0.84;100.00;101038.34;5052508;28;20029;-48
2022/12/11 02:57:00;;;;;;;319.45;99.22;;;;;;;-0.84;100.00;101034.19;5051590;28;20025;-47
2022/12/11 02:59:38;;;;;;;330.15;95.93;;;;;;;-0.81;100.00;101041.13;5052711;28;20025;-48
2022/12/11 03:02:04;;;;;;;299.95;95.35;;;;;;;-0.84;100.00;101033.28;5052659;28;20033;-47
2022/12/11 03:04:32;;;;;;;311.05;95.22;;;;;;;-0.84;100.00;101030.75;5053768;28;20048;-45
2022/12/11 03:07:11;;;;;;;280.90;93.75;;;;;;;-0.84;100.00;101024.06;5056736;28;20029;-45
2022/12/11 03:09:41;;;;;;;296.85;95.20;;;;;;;-0.81;100.00;101028.50;5055926;28;20040;-47
2022/12/11 03:12:10;;;;;;;287.77;92.72;;;;;;;-0.82;100.00;101018.25;5055822;28;20025;-47
2022/12/11 03:14:38;;;;;;;279.17;90.88;;;;;;;-0.80;100.00;101014.16;5056133;28;20104;-45
2022/12/11 03:17:23;;;;;;;264.73;88.55;;;;;;;-0.78;100.00;101016.06;5056321;28;20107;-48
2022/12/11 03:20:06;;;;;;;282.90;92.13;;;;;;;-0.81;100.00;101010.78;5055397;28;20032;-47
2022/12/11 03:22:37;;;;;;;274.00;90.55;;;;;;;-0.82;100.00;101014.06;5056470;28;20049;-43
2022/12/11 03:25:09;;;;;;;276.67;90.10;;;;;;;-0.83;100.00;101007.22;5055422;28;20032;-45
2022/12/11 03:27:47;;;;;;;273.75;91.28;;;;;;;-0.81;100.00;101005.72;5055970;28;20055;-47
2022/12/11 03:30:18;;;;;;;257.30;85.20;;;;;;;-0.81;100.00;101018.38;5056048;28;20029;-48
2022/12/11 03:32:59;;;;;;;244.20;81.00;;;;;;;-0.83;100.00;101007.22;5055198;28;20033;-47
2022/12/11 03:35:37;;;;;;;226.70;78.80;;;;;;;-0.85;100.00;101011.31;5056183;28;20028;-47
2022/12/11 03:38:12;;;;;;;219.63;77.18;;;;;;;-0.83;100.00;101014.81;5055873;28;20032;-47
2022/12/11 03:40:41;;;;;;;210.32;73.55;;;;;;;-0.85;100.00;101014.72;5055144;28;20021;-47
2022/12/11 03:43:09;;;;;;;196.70;72.20;;;;;;;-0.86;100.00;101018.00;5056040;28;20036;-47
2022/12/11 03:45:37;;;;;;;196.02;70.03;;;;;;;-0.85;100.00;101021.44;5055539;28;20377;-47
2022/12/11 03:48:04;;;;;;;187.05;69.55;;;;;;;-0.86;100.00;101012.94;5055454;28;20025;-49
2022/12/11 03:50:32;;;;;;;182.70;66.90;;;;;;;-0.87;100.00;101020.41;5055831;28;20021;-45
2022/12/11 03:53:00;;;;;;;170.18;64.85;;;;;;;-0.89;100.00;101011.81;5055348;28;20036;-47
2022/12/11 03:55:26;;;;;;;;;;;;;;;-0.79;100.00;101009.22;5055703;28;20028;-47
2022/12/11 03:57:52;;;;;;;158.05;60.13;;;;;;;-0.88;100.00;101000.94;5055381;28;20011;-48
2022/12/11 04:00:19;;;;;;;169.35;61.28;;;;;;;-0.90;100.00;100999.94;5054668;28;20104;-48
2022/12/11 04:03:11;;;;;;;163.00;63.65;;;;;;;-0.90;100.00;100994.88;5055227;28;20028;-48
2022/12/11 04:05:30;;;;;;;160.43;61.65;;;;;;;-0.90;100.00;100994.88;5055254;28;20065;-46
2022/12/11 04:07:55;;;;;;;158.70;60.97;;;;;;;-0.88;100.00;100988.28;5054316;28;20052;-47
2022/12/11 04:10:21;;;;;;;156.43;61.90;;;;;;;-0.88;100.00;100985.75;5055271;28;20411;-47
2022/12/11 04:12:46;;;;;;;151.48;58.90;;;;;;;-0.90;100.00;100990.69;5054867;28;20058;-44
2022/12/11 04:15:11;;;;;;;151.70;61.17;;;;;;;-0.90;100.00;100993.22;5054533;28;20029;-48
2022/12/11 04:25:54;;;;;;;147.60;57.80;;;;;;;-0.93;100.00;100990.47;5055486;28;20396;-47
2022/12/11 04:28:19;;;;;;;142.80;56.28;;;;;;;-0.92;100.00;100993.88;5054236;28;20017;-47
2022/12/11 04:30:48;;;;;;;139.95;55.88;;;;;;;-0.92;100.00;100993.88;5054781;28;20060;-48
2022/12/11 04:33:13;;;;;;;135.13;55.25;;;;;;;-0.91;100.00;100993.09;5055094;28;20059;-48
2022/12/11 04:35:39;;;;;;;131.60;53.58;;;;;;;-0.88;100.00;100988.28;5054000;28;20029;-44
2022/12/11 04:38:04;;;;;;;140.90;55.33;;;;;;;-0.90;100.00;100988.16;5054928;28;20384;-48
2022/12/11 04:40:30;;;;;;;141.18;56.67;;;;;;;-0.89;100.00;100986.50;5054850;28;20079;-48
2022/12/11 04:42:55;;;;;;;135.70;54.88;;;;;;;-0.89;100.00;100989.03;5053690;28;20021;-47
2022/12/11 04:45:20;;;;;;;130.27;55.10;;;;;;;-0.90;100.00;100984.75;5054598;28;20024;-43
2022/12/11 04:47:45;;;;;;;123.55;51.35;;;;;;;-0.89;100.00;100986.50;5054280;28;20032;-48
2022/12/11 04:50:13;;;;;;;135.75;53.38;;;;;;;-0.89;100.00;100986.50;5054215;28;20112;-48
2022/12/11 04:52:38;;;;;;;135.13;54.95;;;;;;;-0.88;100.00;100980.69;5054354;28;20103;-47
2022/12/11 04:55:05;;;;;;;136.20;55.58;;;;;;;-0.90;100.00;100985.63;5054483;28;20162;-45
2022/12/11 04:57:31;;;;;;;127.38;52.70;;;;;;;-0.90;100.00;100982.22;5053826;28;20478;-47
2022/12/11 04:59:56;;;;;;;117.82;50.58;;;;;;;-0.91;100.00;100983.00;5054202;28;20147;-48
2022/12/11 05:02:21;;;;;;;118.05;51.25;;;;;;;-0.91;100.00;100977.94;5054345;28;20389;-48
2022/12/11 05:04:47;;;;;;;125.15;52.17;;;;;;;-0.91;100.00;100978.78;5053422;28;20048;-47
2022/12/11 05:07:12;;;;;;;125.13;51.97;;;;;;;-0.91;100.00;100978.78;5054239;28;20037;-46
2022/12/11 05:09:37;;;;;;;129.13;54.83;;;;;;;-0.89;100.00;100974.75;5053777;28;20025;-47
2022/12/11 05:12:03;;;;;;;129.82;53.80;;;;;;;-0.89;100.00;100982.34;5053660;28;20021;-48
2022/12/11 05:14:30;;;;;;;130.63;52.13;;;;;;;-0.88;100.00;100984.13;5053951;28;20385;-47
2022/12/11 05:16:57;;;;;;;128.82;52.80;;;;;;;-0.87;100.00;100979.94;5053862;28;20119;-44
2022/12/11 05:19:22;;;;;;;132.73;53.35;;;;;;;-0.87;100.00;100983.31;5053593;28;20052;-47
2022/12/11 05:21:47;;;;;;;77.05;20.17;;;;;;;-0.78;100.00;100990.75;5053895;28;20108;-48
2022/12/11 05:24:13;;;;;;;130.20;53.85;;;;;;;-0.84;100.00;100980.16;5053681;28;20108;-44
2022/12/11 05:26:38;;;;;;;127.47;52.25;;;;;;;-0.87;100.00;100980.78;5052468;28;20029;-46
2022/12/11 05:29:04;;;;;;;140.00;57.80;;;;;;;-0.87;100.00;100980.78;5053781;28;20025;-48
2022/12/11 05:31:29;;;;;;;127.20;53.63;;;;;;;-0.81;100.00;100975.34;5053511;28;20467;-44
2022/12/11 05:33:54;;;;;;;134.80;55.15;;;;;;;-0.82;100.00;100973.56;5053571;28;20074;-48
2022/12/11 05:36:27;;;;;;;131.75;54.67;;;;;;;-0.82;100.00;100972.69;5053883;28;20029;-47
2022/12/11 05:38:53;;;;;;;128.23;53.90;;;;;;;-0.80;100.00;100969.53;5052720;28;20033;-47
2022/12/11 05:41:21;;;;;;;120.07;52.03;;;;;;;-0.81;100.00;100962.69;5053630;28;20036;-48
2022/12/11 05:43:47;;;;;;;134.32;54.95;;;;;;;-0.81;100.00;100964.31;5052975;28;20111;-46
2022/12/11 05:46:21;;;;;;;127.38;53.42;;;;;;;-0.81;100.00;100965.22;5053160;28;20488;-46
2022/12/11 05:48:48;;;;;;;120.95;52.00;;;;;;;-0.85;100.00;100970.81;5053322;28;20100;-47
2022/12/11 05:51:15;;;;;;;119.63;49.65;;;;;;;-0.85;100.00;100970.81;5053224;28;20392;-48
2022/12/11 05:53:41;;;;;;;115.35;48.22;;;;;;;-0.87;100.00;100974.88;5052673;28;20074;-47
2022/12/11 05:56:10;;;;;;;112.93;50.63;;;;;;;-0.87;100.00;100974.88;5053321;28;20036;-48
2022/12/11 05:58:38;;;;;;;113.82;49.55;;;;;;;-0.85;100.00;100973.34;5052752;28;20372;-47
2022/12/11 06:01:11;;;;;;;110.88;49.67;;;;;;;-0.86;100.00;100980.03;5052805;28;20024;-47
2022/12/11 06:03:37;;;;;;;116.72;50.90;;;;;;;-0.85;100.00;100984.34;5052729;28;20131;-47
2022/12/11 06:06:04;;;;;;;115.75;49.85;;;;;;;-0.85;100.00;100980.94;5052773;28;20167;-47
2022/12/11 06:08:30;;;;;;;110.32;48.72;;;;;;;-0.85;100.00;100978.41;5052678;28;20055;-47
2022/12/11 06:10:56;;;;;;;109.30;48.47;;;;;;;-0.85;100.00;100981.81;5053061;28;20126;-48
2022/12/11 06:13:21;;;;;;;113.45;48.88;;;;;;;-0.85;100.00;100983.47;5053004;28;20473;-46
2022/12/11 06:15:46;;;;;;;114.47;48.15;;;;;;;-0.81;100.00;100989.63;5052379;28;20029;-48
2022/12/11 06:18:11;;;;;;;109.55;48.63;;;;;;;-0.83;100.00;100976.84;5053172;28;20095;-48
2022/12/11 06:20:37;;;;;;;110.63;47.78;;;;;;;-0.83;100.00;100981.91;5052379;28;20029;-48
2022/12/11 06:23:03;;;;;;;118.85;52.45;;;;;;;-0.78;100.00;100980.63;5052220;28;20099;-43
2022/12/11 06:25:29;;;;;;;118.53;49.85;;;;;;;-0.78;100.00;100980.63;5052831;28;20064;-46
2022/12/11 06:27:54;;;;;;;108.93;28.00;;;;;;;-0.71;100.00;100977.81;5051749;28;20060;-48
2022/12/11 06:30:20;;;;;;;109.45;46.92;;;;;;;-0.78;100.00;100975.56;5052725;28;20074;-48
2022/12/11 06:32:45;;;;;;;112.05;48.83;;;;;;;-0.77;100.00;100976.47;5052571;28;20052;-47
2022/12/11 06:35:11;;;;;;;116.07;51.25;;;;;;;-0.77;100.00;100979.88;5052105;28;20357;-48
2022/12/11 06:37:37;;;;;;;118.80;51.15;;;;;;;-0.77;100.00;100976.47;5052522;28;20112;-47
2022/12/11 06:40:04;;;;;;;111.65;48.10;;;;;;;-0.76;100.00;100973.16;5052356;28;20143;-47
2022/12/11 06:42:30;;;;;;;116.20;50.17;;;;;;;-0.76;100.00;100969.00;5052262;28;20037;-46
2022/12/11 06:44:58;;;;;;;125.20;54.67;;;;;;;-0.74;100.00;100972.50;5052372;28;20040;-46
2022/12/11 06:47:27;;;;;;;120.40;50.53;;;;;;;-0.68;100.00;100972.97;5052494;28;20032;-47
2022/12/11 06:49:53;;;;;;;101.22;46.42;;;;;;;-0.68;100.00;100972.13;5051821;28;20044;-45
2022/12/11 06:52:19;;;;;;;125.00;51.22;;;;;;;-0.69;100.00;100971.22;5052530;28;20017;-47
2022/12/11 06:54:45;;;;;;;126.90;51.75;;;;;;;-0.68;100.00;100967.91;5052141;28;20029;-46
2022/12/11 06:57:10;;;;;;;116.78;51.10;;;;;;;-0.63;100.00;100965.75;5052148;28;20426;-47
2022/12/11 06:59:35;;;;;;;119.22;51.28;;;;;;;-0.66;100.00;100965.50;5052119;28;20029;-48
2022/12/11 07:02:02;;;;;;;122.82;52.22;;;;;;;-0.69;100.00;100961.09;5052281;28;20055;-47
2022/12/11 07:04:29;;;;;;;118.60;50.47;;;;;;;-0.63;100.00;100964.84;5051689;28;20055;-49
2022/12/11 07:06:54;;;;;;;124.93;57.83;;;;;;;-0.65;100.00;100967.28;5052150;28;20025;-47
2022/12/11 07:09:21;;;;;;;145.77;65.03;;;;;;;-0.65;100.00;100966.41;5052761;28;20040;-45
2022/12/11 07:11:51;;;;;;;121.00;54.75;;;;;;;-0.64;100.00;100966.50;5051426;28;20431;-47
2022/12/11 07:14:17;;;;;;;118.95;51.72;;;;;;;-0.65;100.00;100971.47;5052492;28;20071;-45
2022/12/11 07:16:42;;;;;;;129.63;56.80;;;;;;;-0.64;100.00;100976.63;5051860;28;20025;-46
2022/12/11 07:19:07;;;;;;;126.85;53.85;;;;;;;-0.65;100.00;100984.13;5051799;28;20075;-46
2022/12/11 07:21:33;;;;;;;121.28;53.75;;;;;;;-0.65;100.00;100979.06;5051984;28;20167;-47
2022/12/11 07:23:59;;;;;;;310.50;139.00;;;;;;;-0.65;100.00;100986.66;5052222;28;20047;-47
2022/12/11 07:26:24;;;;;;;124.22;52.60;;;;;;;-0.63;100.00;100987.63;5051988;28;20029;-47
2022/12/11 07:28:49;;;;;;;122.18;54.03;;;;;;;-0.63;100.00;100991.06;5052093;28;20021;-48
2022/12/11 07:31:21;;;;;;;162.77;69.25;;;;;;;-0.64;100.00;100998.53;5051703;28;20548;-46
2022/12/11 07:33:52;;;;;;;147.63;66.45;;;;;;;-0.64;100.00;101003.59;5052052;28;20422;-48
2022/12/11 07:36:17;;;;;;;130.85;57.95;;;;;;;-0.64;100.00;100999.41;5051896;28;20025;-47
2022/12/11 07:38:43;;;;;;;120.57;55.03;;;;;;;-0.62;100.00;101000.44;5051194;28;20063;-45
2022/12/11 07:41:11;;;;;;;127.65;55.65;;;;;;;-0.63;100.00;100997.75;5052174;28;20032;-47
2022/12/11 07:43:37;;;;;;;139.20;56.58;;;;;;;-0.63;100.00;101000.28;5051374;28;20043;-48
2022/12/11 07:46:12;;;;;;;126.07;52.60;;;;;;;-0.61;100.00;100986.13;5051562;28;20096;-48
2022/12/11 07:48:39;;;;;;;121.20;51.35;;;;;;;-0.61;100.00;100989.50;5051731;28;20029;-48
2022/12/11 07:51:26;;;;;;;126.45;55.00;;;;;;;-0.60;100.00;100991.28;5054588;28;20021;-44
2022/12/11 07:53:54;;;;;;;149.25;66.55;;;;;;;-0.61;100.00;100993.72;5054988;28;20112;-48
2022/12/11 07:56:19;;;;;;;117.55;50.70;;;;;;;-0.60;100.00;100998.00;5055890;28;20033;-43
2022/12/11 07:58:45;;;;;;;120.28;51.78;;;;;;;-0.61;100.00;100988.66;5054959;28;20059;-48
2022/12/11 08:01:13;;;;;;;127.40;52.42;;;;;;;-0.60;100.00;100987.88;5054865;28;20055;-45
2022/12/11 08:03:38;;;;;;;118.60;52.78;;;;;;;-0.58;100.00;100988.88;5055031;28;20444;-47
2022/12/11 08:06:04;;;;;;;119.43;53.72;;;;;;;-0.60;100.00;100988.75;5054970;28;20511;-47
2022/12/11 08:08:30;;;;;;;127.57;51.47;;;;;;;-0.59;100.00;100985.47;5054965;28;20033;-47
2022/12/11 08:10:55;;;;;;;128.30;52.80;;;;;;;-0.59;100.00;100992.19;5054948;28;20033;-47
2022/12/11 08:13:20;;;;;;;126.25;52.33;;;;;;;-0.57;100.00;100985.56;5054469;28;20062;-47
2022/12/11 08:15:46;;;;;;;124.85;50.78;;;;;;;-0.56;100.00;100989.88;5054956;28;20025;-46
2022/12/11 08:18:11;;;;;;;118.43;51.78;;;;;;;-0.58;100.00;100988.88;5054903;28;20022;-47
2022/12/11 08:20:38;;;;;;;131.60;52.70;;;;;;;-0.58;100.00;100983.81;5054457;28;20036;-47
2022/12/11 08:23:03;;;;;;;122.10;52.15;;;;;;;-0.57;100.00;100990.63;5055250;28;20025;-47
2022/12/11 08:25:28;;;;;;;135.02;55.10;;;;;;;-0.56;100.00;100988.22;5054766;28;20039;-48
2022/12/11 08:27:54;;;;;;;153.05;60.88;;;;;;;-0.53;100.00;100987.56;5054164;28;20033;-45
2022/12/11 08:30:19;;;;;;;133.68;55.80;;;;;;;-0.54;100.00;100991.75;5054859;28;20017;-48
2022/12/11 08:32:44;;;;;;;142.27;58.90;;;;;;;-0.51;100.00;100991.13;5054391;28;20482;-47
2022/12/11 08:35:10;;;;;;;129.35;53.30;;;;;;;-0.52;100.00;100992.78;5054424;28;20040;-44
2022/12/11 08:37:35;;;;;;;139.35;55.55;;;;;;;-0.53;100.00;100997.69;5054565;28;20451;-45
2022/12/11 08:40:00;;;;;;;138.85;55.35;;;;;;;-0.53;100.00;100996.06;5054711;28;20028;-46
2022/12/11 08:42:26;;;;;;;133.57;54.03;;;;;;;-0.53;100.00;100997.69;5054338;28;20028;-47
2022/12/11 08:44:51;;;;;;;141.38;60.45;;;;;;;-0.51;100.00;101001.25;5054470;28;20044;-47
2022/12/11 08:47:16;;;;;;;141.50;61.88;;;;;;;-0.51;100.00;100993.66;5054618;28;20021;-45
2022/12/11 08:49:42;;;;;;;147.05;63.03;;;;;;;-0.51;100.00;100993.66;5053855;28;20032;-47
2022/12/11 08:52:07;;;;;;;144.15;60.47;;;;;;;-0.52;100.00;100990.25;5054350;28;20052;-47
2022/12/11 08:54:33;;;;;;;148.13;60.33;;;;;;;-0.50;100.00;100987.81;5053961;28;20047;-48
2022/12/11 08:56:58;;;;;;;159.18;70.35;;;;;;;-0.48;100.00;100986.28;5053965;28;20035;-47
2022/12/11 08:59:24;;;;;;;143.88;59.47;;;;;;;-0.47;100.00;100977.91;5054341;28;20416;-44
2022/12/11 09:01:50;;;;;;;155.35;61.88;;;;;;;-0.47;100.00;100982.09;5052929;28;20029;-49
2022/12/11 09:04:15;;;;;;;136.85;58.28;;;;;;;-0.48;100.00;100980.34;5053692;28;20057;-48
2022/12/11 09:06:40;;;;;;;140.90;59.45;;;;;;;-0.47;100.00;100980.44;5054263;28;20096;-46
2022/12/11 09:09:06;;;;;;;152.65;63.03;;;;;;;-0.48;100.00;100983.75;5054194;28;20051;-44
2022/12/11 09:11:34;;;;;;;140.82;59.53;;;;;;;-0.46;100.00;100979.69;5053619;28;20132;-44
2022/12/11 09:14:00;;;;;;;137.27;56.00;;;;;;;-0.46;100.00;100974.63;5054121;28;20029;-45
2022/12/11 09:16:26;;;;;;;168.45;67.57;;;;;;;-0.46;100.00;100979.69;5054100;28;20025;-46
2022/12/11 09:18:54;;;;;;;150.02;63.22;;;;;;;-0.46;100.00;100973.75;5053433;28;20028;-46
2022/12/11 09:21:22;;;;;;;142.30;57.45;;;;;;;-0.47;100.00;100975.38;5053953;28;20380;-44
2022/12/11 09:23:47;;;;;;;;;;;;;;;-0.37;100.00;100977.84;5053571;28;20029;-45
2022/12/11 09:26:16;;;;;;;148.70;60.25;;;;;;;-0.44;100.00;100984.88;5053931;28;20256;-44
2022/12/11 09:28:42;;;;;;;137.55;56.47;;;;;;;-0.46;100.00;100984.75;5053381;28;20104;-43
2022/12/11 09:31:10;;;;;;;138.45;59.67;;;;;;;-0.43;100.00;100979.91;5053490;28;20163;-45
2022/12/11 09:33:35;;;;;;;84.68;23.48;;;;;;;-0.35;100.00;100977.94;5053478;28;20412;-44
2022/12/11 09:36:02;;;;;;;130.80;57.00;;;;;;;-0.42;100.00;100976.63;5053476;28;20456;-47
2022/12/11 09:38:28;;;;;;;149.55;58.58;;;;;;;-0.42;100.00;100976.63;5053277;28;20100;-45
2022/12/11 09:40:54;;;;;;;137.25;55.40;;;;;;;-0.42;100.00;100979.16;5053355;28;20112;-42
2022/12/11 09:43:58;;;;;;;135.20;55.67;;;;;;;-0.42;100.00;100981.69;5053129;28;20025;-46
2022/12/11 09:46:23;;;;;;;132.43;55.75;;;;;;;-0.44;100.00;100983.22;5044354;28;20396;-45
2022/12/11 09:48:49;;;;;;;143.20;55.83;;;;;;;-0.40;100.00;100974.19;5053200;28;20491;-45
2022/12/11 09:51:28;;;;;;;140.27;56.35;;;;;;;-0.37;100.00;100977.84;5053211;28;20036;-45
2022/12/11 09:53:58;;;;;;;136.57;58.13;;;;;;;-0.34;100.00;100978.09;5052858;28;20414;-41
2022/12/11 09:56:48;;;;;;;149.35;61.42;;;;;;;-0.34;100.00;100978.09;5053390;28;20059;-44
2022/12/11 09:59:19;;;;;;;385.48;145.35;;;;;;;-0.32;100.00;100977.31;5052442;28;20420;-46
2022/12/11 10:01:59;;;;;;;208.65;88.07;;;;;;;-0.31;100.00;100972.38;5052931;28;20112;-45
2022/12/11 10:04:52;;;;;;;172.77;72.82;;;;;;;-0.30;100.00;100966.53;5052681;28;20467;-45
2022/12/11 10:07:17;;;;;;;153.13;65.60;;;;;;;-0.28;100.00;100972.59;5052751;28;20021;-44
2022/12/11 10:10:08;;;;;;;152.45;61.80;;;;;;;-0.23;100.00;100972.97;5052594;28;20104;-46
2022/12/11 10:12:55;;;;;;;141.88;56.95;;;;;;;-0.29;100.00;100967.41;5052098;28;20074;-44
2022/12/11 10:15:38;;;;;;;150.27;60.30;;;;;;;-0.27;100.00;100968.41;5053189;28;20029;-46
2022/12/11 10:18:09;;;;;;;153.55;62.53;;;;;;;-0.25;100.00;100962.69;5052797;28;20033;-46
2022/12/11 10:20:38;;;;;;;146.02;59.72;;;;;;;-0.23;100.00;100958.63;5051918;28;20025;-46
2022/12/11 10:23:06;;;;;;;160.60;63.28;;;;;;;-0.20;100.00;100957.97;5052690;28;20116;-46
2022/12/11 10:25:39;;;;;;;154.18;63.10;;;;;;;-0.22;100.00;100959.50;5052419;28;20432;-45
2022/12/11 10:28:16;;;;;;;149.20;60.72;;;;;;;-0.19;100.00;100959.75;5052471;28;20021;-45
2022/12/11 10:30:50;;;;;;;138.63;58.30;;;;;;;-0.14;100.00;100963.50;5052575;28;20109;-47
2022/12/11 10:33:30;;;;;;;151.10;65.10;;;;;;;-0.10;100.00;100965.50;5052413;28;20095;-47
2022/12/11 10:35:57;;;;;;;138.45;56.50;;;;;;;-0.11;100.00;100956.13;5052151;28;20041;-46
2022/12/11 10:38:29;;;;;;;174.20;76.93;;;;;;;-0.11;100.00;100957.78;5052856;28;20032;-45
2022/12/11 10:41:01;;;;;;;147.73;56.58;;;;;;;-0.13;100.00;100960.22;5052427;28;20036;-46
2022/12/11 10:43:36;;;;;;;138.20;54.63;;;;;;;-0.17;100.00;100948.06;5052596;28;20470;-46
2022/12/11 10:46:04;;;;;;;185.52;80.53;;;;;;;-0.19;100.00;100953.00;5052655;28;20032;-46
2022/12/11 10:48:29;;;;;;;161.93;69.55;;;;;;;-0.15;100.00;100950.72;5052261;28;20029;-46
2022/12/11 10:50:59;;;;;;;142.75;58.25;;;;;;;-0.16;100.00;100949.81;5052458;28;20036;-46
2022/12/11 10:53:25;;;;;;;147.27;55.30;;;;;;;-0.14;100.00;100953.38;5052470;28;20044;-47
2022/12/11 10:55:51;;;;;;;130.82;54.33;;;;;;;-0.20;100.00;100943.66;5051523;28;20025;-46
2022/12/11 10:58:23;;;;;;;129.57;54.17;;;;;;;-0.24;100.00;100954.31;5052352;28;20040;-46
2022/12/11 11:01:20;;;;;;;135.07;57.13;;;;;;;-0.21;100.00;100948.59;5051867;28;20051;-45
2022/12/11 11:04:16;;;;;;;140.13;59.20;;;;;;;-0.24;100.00;100941.66;5046988;28;20088;-46
2022/12/11 11:06:42;;;;;;;143.05;56.55;;;;;;;-0.21;100.00;100943.53;5051629;28;20029;-45